sensor_id;sensor_type;location;lat;lon;timestamp;P1;durP1;ratioP1;P2;durP2;ratioP2
72394;SDS011;60384;48.152;11.614;2023-09-30T00:02:28;19.10;;;6.45;;
72394;SDS011;60384;48.152;11.614;2023-09-30T00:08:32;20.50;;;6.57;;
72394;SDS011;60384;48.152;11.614;2023-09-30T00:11:35;19.65;;;6.90;;
72394;SDS011;60384;48.152;11.614;2023-09-30T00:14:38;19.15;;;6.63;;
72394;SDS011;60384;48.152;11.614;2023-09-30T00:20:42;18.90;;;6.17;;
72394;SDS011;60384;48.152;11.614;2023-09-30T00:23:44;21.52;;;6.68;;
72394;SDS011;60384;48.152;11.614;2023-09-30T00:26:47;20.70;;;6.50;;
72394;SDS011;60384;48.152;11.614;2023-09-30T00:29:51;17.45;;;6.13;;
72394;SDS011;60384;48.152;11.614;2023-09-30T00:32:53;20.95;;;6.97;;
72394;SDS011;60384;48.152;11.614;2023-09-30T00:35:55;23.40;;;7.35;;
72394;SDS011;60384;48.152;11.614;2023-09-30T00:38:57;20.35;;;7.10;;
72394;SDS011;60384;48.152;11.614;2023-09-30T00:42:00;18.48;;;6.55;;
72394;SDS011;60384;48.152;11.614;2023-09-30T00:45:05;23.63;;;7.10;;
72394;SDS011;60384;48.152;11.614;2023-09-30T00:48:09;22.38;;;7.88;;
72394;SDS011;60384;48.152;11.614;2023-09-30T00:51:12;21.58;;;6.93;;
72394;SDS011;60384;48.152;11.614;2023-09-30T00:54:14;19.15;;;6.45;;
72394;SDS011;60384;48.152;11.614;2023-09-30T00:57:18;21.13;;;7.47;;
72394;SDS011;60384;48.152;11.614;2023-09-30T01:00:22;20.65;;;6.90;;
72394;SDS011;60384;48.152;11.614;2023-09-30T01:03:25;21.50;;;7.35;;
72394;SDS011;60384;48.152;11.614;2023-09-30T01:06:27;21.75;;;7.43;;
72394;SDS011;60384;48.152;11.614;2023-09-30T01:12:34;21.58;;;7.60;;
72394;SDS011;60384;48.152;11.614;2023-09-30T01:15:36;23.73;;;7.70;;
72394;SDS011;60384;48.152;11.614;2023-09-30T01:21:44;21.13;;;7.63;;
72394;SDS011;60384;48.152;11.614;2023-09-30T01:24:48;22.30;;;7.55;;
72394;SDS011;60384;48.152;11.614;2023-09-30T01:27:50;22.00;;;7.88;;
72394;SDS011;60384;48.152;11.614;2023-09-30T01:30:52;21.33;;;7.70;;
72394;SDS011;60384;48.152;11.614;2023-09-30T01:33:54;19.67;;;7.57;;
72394;SDS011;60384;48.152;11.614;2023-09-30T01:36:59;21.17;;;7.78;;
72394;SDS011;60384;48.152;11.614;2023-09-30T01:40:01;21.50;;;7.43;;
72394;SDS011;60384;48.152;11.614;2023-09-30T01:43:08;21.52;;;7.45;;
72394;SDS011;60384;48.152;11.614;2023-09-30T01:46:10;25.52;;;8.25;;
72394;SDS011;60384;48.152;11.614;2023-09-30T01:49:13;22.45;;;7.75;;
72394;SDS011;60384;48.152;11.614;2023-09-30T01:52:17;21.42;;;7.70;;
72394;SDS011;60384;48.152;11.614;2023-09-30T01:55:19;23.88;;;8.02;;
72394;SDS011;60384;48.152;11.614;2023-09-30T01:58:21;22.98;;;8.68;;
72394;SDS011;60384;48.152;11.614;2023-09-30T02:01:23;22.15;;;7.80;;
72394;SDS011;60384;48.152;11.614;2023-09-30T02:04:25;21.25;;;8.00;;
72394;SDS011;60384;48.152;11.614;2023-09-30T02:07:28;20.95;;;7.78;;
72394;SDS011;60384;48.152;11.614;2023-09-30T02:10:30;23.33;;;8.15;;
72394;SDS011;60384;48.152;11.614;2023-09-30T02:13:32;24.17;;;8.05;;
72394;SDS011;60384;48.152;11.614;2023-09-30T02:16:35;22.75;;;8.35;;
72394;SDS011;60384;48.152;11.614;2023-09-30T02:19:38;23.52;;;7.72;;
72394;SDS011;60384;48.152;11.614;2023-09-30T02:22:42;24.27;;;8.88;;
72394;SDS011;60384;48.152;11.614;2023-09-30T02:25:46;20.83;;;8.00;;
72394;SDS011;60384;48.152;11.614;2023-09-30T02:28:48;19.45;;;7.20;;
72394;SDS011;60384;48.152;11.614;2023-09-30T02:31:50;21.83;;;8.32;;
72394;SDS011;60384;48.152;11.614;2023-09-30T02:34:55;24.65;;;8.35;;
72394;SDS011;60384;48.152;11.614;2023-09-30T02:37:58;22.80;;;8.02;;
72394;SDS011;60384;48.152;11.614;2023-09-30T02:41:02;25.08;;;9.07;;
72394;SDS011;60384;48.152;11.614;2023-09-30T02:47:06;19.98;;;7.50;;
72394;SDS011;60384;48.152;11.614;2023-09-30T02:50:09;26.48;;;8.00;;
72394;SDS011;60384;48.152;11.614;2023-09-30T02:53:14;22.58;;;8.32;;
72394;SDS011;60384;48.152;11.614;2023-09-30T02:56:15;24.38;;;7.75;;
72394;SDS011;60384;48.152;11.614;2023-09-30T02:59:19;23.67;;;8.45;;
72394;SDS011;60384;48.152;11.614;2023-09-30T03:02:24;22.73;;;7.95;;
72394;SDS011;60384;48.152;11.614;2023-09-30T03:05:26;23.98;;;8.13;;
72394;SDS011;60384;48.152;11.614;2023-09-30T03:08:32;20.77;;;8.30;;
72394;SDS011;60384;48.152;11.614;2023-09-30T03:11:35;22.63;;;8.65;;
72394;SDS011;60384;48.152;11.614;2023-09-30T03:14:37;22.85;;;8.68;;
72394;SDS011;60384;48.152;11.614;2023-09-30T03:17:40;22.20;;;8.52;;
72394;SDS011;60384;48.152;11.614;2023-09-30T03:23:45;20.87;;;7.87;;
72394;SDS011;60384;48.152;11.614;2023-09-30T03:26:47;22.40;;;8.23;;
72394;SDS011;60384;48.152;11.614;2023-09-30T03:29:49;23.70;;;8.88;;
72394;SDS011;60384;48.152;11.614;2023-09-30T03:32:51;20.45;;;6.82;;
72394;SDS011;60384;48.152;11.614;2023-09-30T03:35:53;23.70;;;7.63;;
72394;SDS011;60384;48.152;11.614;2023-09-30T03:38:56;18.25;;;6.72;;
72394;SDS011;60384;48.152;11.614;2023-09-30T03:42:06;21.33;;;6.85;;
72394;SDS011;60384;48.152;11.614;2023-09-30T03:45:11;19.58;;;6.97;;
72394;SDS011;60384;48.152;11.614;2023-09-30T03:48:14;17.70;;;6.65;;
72394;SDS011;60384;48.152;11.614;2023-09-30T03:51:16;20.15;;;6.95;;
72394;SDS011;60384;48.152;11.614;2023-09-30T03:54:19;19.50;;;7.05;;
72394;SDS011;60384;48.152;11.614;2023-09-30T03:57:21;18.52;;;6.82;;
72394;SDS011;60384;48.152;11.614;2023-09-30T04:00:23;20.30;;;7.25;;
72394;SDS011;60384;48.152;11.614;2023-09-30T04:03:25;19.70;;;7.47;;
72394;SDS011;60384;48.152;11.614;2023-09-30T04:06:27;19.77;;;6.63;;
72394;SDS011;60384;48.152;11.614;2023-09-30T04:09:31;23.27;;;8.27;;
72394;SDS011;60384;48.152;11.614;2023-09-30T04:12:33;20.33;;;7.13;;
72394;SDS011;60384;48.152;11.614;2023-09-30T04:15:35;19.17;;;7.03;;
72394;SDS011;60384;48.152;11.614;2023-09-30T04:18:37;21.60;;;7.93;;
72394;SDS011;60384;48.152;11.614;2023-09-30T04:21:40;20.65;;;7.50;;
72394;SDS011;60384;48.152;11.614;2023-09-30T04:24:44;20.02;;;7.10;;
72394;SDS011;60384;48.152;11.614;2023-09-30T04:27:46;21.92;;;8.18;;
72394;SDS011;60384;48.152;11.614;2023-09-30T04:30:49;20.70;;;6.75;;
72394;SDS011;60384;48.152;11.614;2023-09-30T04:33:51;21.10;;;7.45;;
72394;SDS011;60384;48.152;11.614;2023-09-30T04:36:54;20.52;;;7.13;;
72394;SDS011;60384;48.152;11.614;2023-09-30T04:39:57;22.92;;;7.75;;
72394;SDS011;60384;48.152;11.614;2023-09-30T04:42:59;20.63;;;7.53;;
72394;SDS011;60384;48.152;11.614;2023-09-30T04:46:01;21.15;;;7.55;;
72394;SDS011;60384;48.152;11.614;2023-09-30T04:49:02;19.92;;;7.03;;
72394;SDS011;60384;48.152;11.614;2023-09-30T04:52:05;22.23;;;7.47;;
72394;SDS011;60384;48.152;11.614;2023-09-30T04:55:09;18.35;;;6.88;;
72394;SDS011;60384;48.152;11.614;2023-09-30T04:58:12;22.38;;;7.35;;
72394;SDS011;60384;48.152;11.614;2023-09-30T05:01:14;22.65;;;6.97;;
72394;SDS011;60384;48.152;11.614;2023-09-30T05:04:18;19.10;;;7.38;;
72394;SDS011;60384;48.152;11.614;2023-09-30T05:07:20;18.95;;;6.53;;
72394;SDS011;60384;48.152;11.614;2023-09-30T05:10:24;18.77;;;6.10;;
72394;SDS011;60384;48.152;11.614;2023-09-30T05:13:26;20.25;;;7.47;;
72394;SDS011;60384;48.152;11.614;2023-09-30T05:16:28;21.42;;;7.25;;
72394;SDS011;60384;48.152;11.614;2023-09-30T05:19:29;18.42;;;6.57;;
72394;SDS011;60384;48.152;11.614;2023-09-30T05:22:33;18.02;;;6.00;;
72394;SDS011;60384;48.152;11.614;2023-09-30T05:28:38;21.30;;;6.22;;
72394;SDS011;60384;48.152;11.614;2023-09-30T05:34:42;20.60;;;6.72;;
72394;SDS011;60384;48.152;11.614;2023-09-30T05:37:44;20.88;;;6.82;;
72394;SDS011;60384;48.152;11.614;2023-09-30T05:40:47;17.73;;;6.82;;
72394;SDS011;60384;48.152;11.614;2023-09-30T05:43:49;18.80;;;5.97;;
72394;SDS011;60384;48.152;11.614;2023-09-30T05:46:51;19.63;;;6.28;;
72394;SDS011;60384;48.152;11.614;2023-09-30T05:49:53;16.17;;;5.38;;
72394;SDS011;60384;48.152;11.614;2023-09-30T05:52:56;17.30;;;5.35;;
72394;SDS011;60384;48.152;11.614;2023-09-30T05:55:59;19.17;;;6.38;;
72394;SDS011;60384;48.152;11.614;2023-09-30T05:59:01;15.90;;;5.50;;
72394;SDS011;60384;48.152;11.614;2023-09-30T06:02:05;18.77;;;6.35;;
72394;SDS011;60384;48.152;11.614;2023-09-30T06:05:07;16.80;;;5.75;;
72394;SDS011;60384;48.152;11.614;2023-09-30T06:08:11;17.85;;;6.00;;
72394;SDS011;60384;48.152;11.614;2023-09-30T06:11:18;17.50;;;5.95;;
72394;SDS011;60384;48.152;11.614;2023-09-30T06:14:24;17.42;;;6.03;;
72394;SDS011;60384;48.152;11.614;2023-09-30T06:17:28;16.55;;;6.28;;
72394;SDS011;60384;48.152;11.614;2023-09-30T06:20:30;18.27;;;5.60;;
72394;SDS011;60384;48.152;11.614;2023-09-30T06:23:32;14.05;;;5.47;;
72394;SDS011;60384;48.152;11.614;2023-09-30T06:26:35;17.65;;;5.38;;
72394;SDS011;60384;48.152;11.614;2023-09-30T06:29:37;16.00;;;4.97;;
72394;SDS011;60384;48.152;11.614;2023-09-30T06:32:39;14.77;;;5.15;;
72394;SDS011;60384;48.152;11.614;2023-09-30T06:35:42;14.57;;;5.03;;
72394;SDS011;60384;48.152;11.614;2023-09-30T06:38:50;11.75;;;3.50;;
72394;SDS011;60384;48.152;11.614;2023-09-30T06:41:53;15.43;;;4.80;;
72394;SDS011;60384;48.152;11.614;2023-09-30T06:44:55;10.30;;;3.08;;
72394;SDS011;60384;48.152;11.614;2023-09-30T06:47:57;14.57;;;5.18;;
72394;SDS011;60384;48.152;11.614;2023-09-30T06:50:59;15.35;;;5.03;;
72394;SDS011;60384;48.152;11.614;2023-09-30T06:54:04;15.85;;;5.07;;
72394;SDS011;60384;48.152;11.614;2023-09-30T06:57:08;15.23;;;4.70;;
72394;SDS011;60384;48.152;11.614;2023-09-30T07:00:11;12.48;;;3.97;;
72394;SDS011;60384;48.152;11.614;2023-09-30T07:03:14;12.13;;;3.85;;
72394;SDS011;60384;48.152;11.614;2023-09-30T07:09:23;10.60;;;3.67;;
72394;SDS011;60384;48.152;11.614;2023-09-30T07:12:26;12.02;;;3.63;;
72394;SDS011;60384;48.152;11.614;2023-09-30T07:15:28;10.63;;;3.90;;
72394;SDS011;60384;48.152;11.614;2023-09-30T07:18:30;12.13;;;3.63;;
72394;SDS011;60384;48.152;11.614;2023-09-30T07:21:32;9.45;;;3.25;;
72394;SDS011;60384;48.152;11.614;2023-09-30T07:24:34;10.48;;;3.30;;
72394;SDS011;60384;48.152;11.614;2023-09-30T07:27:37;9.93;;;3.67;;
72394;SDS011;60384;48.152;11.614;2023-09-30T07:30:39;9.95;;;3.35;;
72394;SDS011;60384;48.152;11.614;2023-09-30T07:33:41;9.50;;;3.20;;
72394;SDS011;60384;48.152;11.614;2023-09-30T07:36:43;10.15;;;3.33;;
72394;SDS011;60384;48.152;11.614;2023-09-30T07:39:45;9.75;;;3.25;;
72394;SDS011;60384;48.152;11.614;2023-09-30T07:42:48;11.75;;;3.53;;
72394;SDS011;60384;48.152;11.614;2023-09-30T07:45:51;9.65;;;3.45;;
72394;SDS011;60384;48.152;11.614;2023-09-30T07:48:54;10.73;;;3.42;;
72394;SDS011;60384;48.152;11.614;2023-09-30T07:51:56;10.45;;;3.58;;
72394;SDS011;60384;48.152;11.614;2023-09-30T07:58:01;8.20;;;2.70;;
72394;SDS011;60384;48.152;11.614;2023-09-30T08:01:03;12.38;;;3.67;;
72394;SDS011;60384;48.152;11.614;2023-09-30T08:04:05;14.18;;;4.50;;
72394;SDS011;60384;48.152;11.614;2023-09-30T08:10:09;11.38;;;3.58;;
72394;SDS011;60384;48.152;11.614;2023-09-30T08:13:15;14.35;;;3.83;;
72394;SDS011;60384;48.152;11.614;2023-09-30T08:16:17;12.77;;;3.95;;
72394;SDS011;60384;48.152;11.614;2023-09-30T08:19:19;11.27;;;4.05;;
72394;SDS011;60384;48.152;11.614;2023-09-30T08:22:22;13.73;;;4.45;;
72394;SDS011;60384;48.152;11.614;2023-09-30T08:25:27;12.10;;;4.03;;
72394;SDS011;60384;48.152;11.614;2023-09-30T08:28:31;13.82;;;4.25;;
72394;SDS011;60384;48.152;11.614;2023-09-30T08:31:32;14.02;;;4.00;;
72394;SDS011;60384;48.152;11.614;2023-09-30T08:34:34;11.52;;;3.92;;
72394;SDS011;60384;48.152;11.614;2023-09-30T08:37:36;13.40;;;4.03;;
72394;SDS011;60384;48.152;11.614;2023-09-30T08:40:38;13.25;;;4.63;;
72394;SDS011;60384;48.152;11.614;2023-09-30T08:43:41;13.07;;;4.32;;
72394;SDS011;60384;48.152;11.614;2023-09-30T08:46:44;14.23;;;4.28;;
72394;SDS011;60384;48.152;11.614;2023-09-30T08:49:48;13.85;;;4.57;;
72394;SDS011;60384;48.152;11.614;2023-09-30T08:52:55;13.20;;;4.63;;
72394;SDS011;60384;48.152;11.614;2023-09-30T08:55:57;11.82;;;3.83;;
72394;SDS011;60384;48.152;11.614;2023-09-30T08:59:02;14.43;;;3.95;;
72394;SDS011;60384;48.152;11.614;2023-09-30T09:02:05;13.57;;;4.65;;
72394;SDS011;60384;48.152;11.614;2023-09-30T09:05:10;11.48;;;3.35;;
72394;SDS011;60384;48.152;11.614;2023-09-30T09:08:12;12.60;;;4.30;;
72394;SDS011;60384;48.152;11.614;2023-09-30T09:11:14;11.15;;;3.65;;
72394;SDS011;60384;48.152;11.614;2023-09-30T09:14:17;11.63;;;4.28;;
72394;SDS011;60384;48.152;11.614;2023-09-30T09:17:19;14.93;;;4.93;;
72394;SDS011;60384;48.152;11.614;2023-09-30T09:20:23;12.25;;;4.22;;
72394;SDS011;60384;48.152;11.614;2023-09-30T09:23:27;14.82;;;4.43;;
72394;SDS011;60384;48.152;11.614;2023-09-30T09:29:36;12.35;;;4.30;;
72394;SDS011;60384;48.152;11.614;2023-09-30T09:32:50;13.43;;;4.03;;
72394;SDS011;60384;48.152;11.614;2023-09-30T09:35:54;12.65;;;4.75;;
72394;SDS011;60384;48.152;11.614;2023-09-30T09:38:56;13.63;;;4.20;;
72394;SDS011;60384;48.152;11.614;2023-09-30T09:41:58;11.75;;;4.20;;
72394;SDS011;60384;48.152;11.614;2023-09-30T09:45:03;12.60;;;4.28;;
72394;SDS011;60384;48.152;11.614;2023-09-30T09:48:07;12.10;;;4.28;;
72394;SDS011;60384;48.152;11.614;2023-09-30T09:51:10;13.70;;;4.35;;
72394;SDS011;60384;48.152;11.614;2023-09-30T09:54:13;14.40;;;4.20;;
72394;SDS011;60384;48.152;11.614;2023-09-30T09:57:17;11.13;;;4.40;;
72394;SDS011;60384;48.152;11.614;2023-09-30T10:00:21;12.63;;;4.90;;
72394;SDS011;60384;48.152;11.614;2023-09-30T10:03:24;12.52;;;4.15;;
72394;SDS011;60384;48.152;11.614;2023-09-30T10:06:26;10.65;;;3.15;;
72394;SDS011;60384;48.152;11.614;2023-09-30T10:09:29;12.15;;;4.43;;
72394;SDS011;60384;48.152;11.614;2023-09-30T10:12:35;10.23;;;3.83;;
72394;SDS011;60384;48.152;11.614;2023-09-30T10:15:40;10.77;;;3.28;;
72394;SDS011;60384;48.152;11.614;2023-09-30T10:22:20;10.05;;;3.00;;
72394;SDS011;60384;48.152;11.614;2023-09-30T10:25:35;11.55;;;2.83;;
72394;SDS011;60384;48.152;11.614;2023-09-30T10:28:37;9.02;;;3.30;;
72394;SDS011;60384;48.152;11.614;2023-09-30T10:31:50;10.77;;;3.30;;
72394;SDS011;60384;48.152;11.614;2023-09-30T10:38:36;11.90;;;3.60;;
72394;SDS011;60384;48.152;11.614;2023-09-30T10:45:02;9.85;;;3.30;;
72394;SDS011;60384;48.152;11.614;2023-09-30T10:51:38;9.23;;;2.72;;
72394;SDS011;60384;48.152;11.614;2023-09-30T10:54:40;8.27;;;2.92;;
72394;SDS011;60384;48.152;11.614;2023-09-30T10:57:43;10.32;;;3.17;;
72394;SDS011;60384;48.152;11.614;2023-09-30T11:00:52;9.07;;;3.42;;
72394;SDS011;60384;48.152;11.614;2023-09-30T11:03:59;9.27;;;3.10;;
72394;SDS011;60384;48.152;11.614;2023-09-30T11:07:04;11.27;;;3.58;;
72394;SDS011;60384;48.152;11.614;2023-09-30T11:10:06;10.98;;;4.47;;
72394;SDS011;60384;48.152;11.614;2023-09-30T11:13:08;11.88;;;3.55;;
72394;SDS011;60384;48.152;11.614;2023-09-30T11:19:13;9.00;;;3.30;;
72394;SDS011;60384;48.152;11.614;2023-09-30T11:22:16;11.25;;;3.28;;
72394;SDS011;60384;48.152;11.614;2023-09-30T11:25:18;10.82;;;3.58;;
72394;SDS011;60384;48.152;11.614;2023-09-30T11:28:21;12.20;;;4.22;;
72394;SDS011;60384;48.152;11.614;2023-09-30T11:31:27;12.00;;;4.80;;
72394;SDS011;60384;48.152;11.614;2023-09-30T11:34:35;15.23;;;4.07;;
72394;SDS011;60384;48.152;11.614;2023-09-30T11:37:40;13.60;;;4.45;;
72394;SDS011;60384;48.152;11.614;2023-09-30T11:40:57;14.35;;;4.65;;
72394;SDS011;60384;48.152;11.614;2023-09-30T11:44:01;11.40;;;4.10;;
72394;SDS011;60384;48.152;11.614;2023-09-30T11:47:07;11.45;;;4.07;;
72394;SDS011;60384;48.152;11.614;2023-09-30T11:50:12;11.57;;;3.92;;
72394;SDS011;60384;48.152;11.614;2023-09-30T11:53:17;11.27;;;3.90;;
72394;SDS011;60384;48.152;11.614;2023-09-30T11:56:21;11.00;;;3.50;;
72394;SDS011;60384;48.152;11.614;2023-09-30T11:59:28;10.65;;;3.30;;
72394;SDS011;60384;48.152;11.614;2023-09-30T12:05:33;13.00;;;3.65;;
72394;SDS011;60384;48.152;11.614;2023-09-30T12:08:36;12.38;;;4.20;;
72394;SDS011;60384;48.152;11.614;2023-09-30T12:14:44;9.82;;;3.65;;
72394;SDS011;60384;48.152;11.614;2023-09-30T12:20:52;11.35;;;3.97;;
72394;SDS011;60384;48.152;11.614;2023-09-30T12:23:54;10.93;;;3.38;;
72394;SDS011;60384;48.152;11.614;2023-09-30T12:26:56;12.52;;;4.63;;
72394;SDS011;60384;48.152;11.614;2023-09-30T12:29:58;13.25;;;4.68;;
72394;SDS011;60384;48.152;11.614;2023-09-30T12:33:00;12.93;;;4.95;;
72394;SDS011;60384;48.152;11.614;2023-09-30T12:36:03;13.52;;;5.60;;
72394;SDS011;60384;48.152;11.614;2023-09-30T12:39:05;14.82;;;5.63;;
72394;SDS011;60384;48.152;11.614;2023-09-30T12:42:11;16.40;;;6.38;;
72394;SDS011;60384;48.152;11.614;2023-09-30T12:45:13;16.48;;;6.13;;
72394;SDS011;60384;48.152;11.614;2023-09-30T12:48:14;17.25;;;6.70;;
72394;SDS011;60384;48.152;11.614;2023-09-30T12:51:19;16.45;;;6.32;;
72394;SDS011;60384;48.152;11.614;2023-09-30T12:54:20;17.55;;;6.40;;
72394;SDS011;60384;48.152;11.614;2023-09-30T12:57:23;16.67;;;5.90;;
72394;SDS011;60384;48.152;11.614;2023-09-30T13:00:25;18.13;;;6.20;;
72394;SDS011;60384;48.152;11.614;2023-09-30T13:03:27;12.25;;;4.80;;
72394;SDS011;60384;48.152;11.614;2023-09-30T13:06:30;15.75;;;6.03;;
72394;SDS011;60384;48.152;11.614;2023-09-30T13:09:35;15.93;;;5.97;;
72394;SDS011;60384;48.152;11.614;2023-09-30T13:12:38;15.77;;;5.38;;
72394;SDS011;60384;48.152;11.614;2023-09-30T13:18:41;14.60;;;5.15;;
72394;SDS011;60384;48.152;11.614;2023-09-30T13:24:46;12.85;;;4.32;;
72394;SDS011;60384;48.152;11.614;2023-09-30T13:27:48;16.50;;;5.22;;
72394;SDS011;60384;48.152;11.614;2023-09-30T13:33:51;10.45;;;3.95;;
72394;SDS011;60384;48.152;11.614;2023-09-30T13:39:57;14.40;;;4.78;;
72394;SDS011;60384;48.152;11.614;2023-09-30T13:46:03;14.55;;;5.32;;
72394;SDS011;60384;48.152;11.614;2023-09-30T13:49:06;16.00;;;5.20;;
72394;SDS011;60384;48.152;11.614;2023-09-30T13:55:11;13.98;;;5.10;;
72394;SDS011;60384;48.152;11.614;2023-09-30T13:58:18;14.15;;;5.22;;
72394;SDS011;60384;48.152;11.614;2023-09-30T14:01:26;12.73;;;4.05;;
72394;SDS011;60384;48.152;11.614;2023-09-30T14:04:29;12.32;;;4.68;;
72394;SDS011;60384;48.152;11.614;2023-09-30T14:07:33;14.25;;;5.00;;
72394;SDS011;60384;48.152;11.614;2023-09-30T14:10:35;12.50;;;4.60;;
72394;SDS011;60384;48.152;11.614;2023-09-30T14:16:39;12.25;;;4.60;;
72394;SDS011;60384;48.152;11.614;2023-09-30T14:22:44;13.50;;;4.68;;
72394;SDS011;60384;48.152;11.614;2023-09-30T14:25:46;15.93;;;4.60;;
72394;SDS011;60384;48.152;11.614;2023-09-30T14:31:50;14.18;;;4.90;;
72394;SDS011;60384;48.152;11.614;2023-09-30T14:37:54;13.95;;;4.65;;
72394;SDS011;60384;48.152;11.614;2023-09-30T14:40:57;12.48;;;4.47;;
72394;SDS011;60384;48.152;11.614;2023-09-30T14:47:00;13.98;;;4.80;;
72394;SDS011;60384;48.152;11.614;2023-09-30T14:50:02;13.48;;;4.28;;
72394;SDS011;60384;48.152;11.614;2023-09-30T14:53:08;14.27;;;5.07;;
72394;SDS011;60384;48.152;11.614;2023-09-30T14:56:16;12.25;;;4.32;;
72394;SDS011;60384;48.152;11.614;2023-09-30T14:59:18;13.55;;;5.10;;
72394;SDS011;60384;48.152;11.614;2023-09-30T15:05:23;14.57;;;4.60;;
72394;SDS011;60384;48.152;11.614;2023-09-30T15:11:29;15.25;;;5.03;;
72394;SDS011;60384;48.152;11.614;2023-09-30T15:14:31;13.38;;;4.72;;
72394;SDS011;60384;48.152;11.614;2023-09-30T15:20:37;13.65;;;5.03;;
72394;SDS011;60384;48.152;11.614;2023-09-30T15:23:42;14.43;;;4.70;;
72394;SDS011;60384;48.152;11.614;2023-09-30T15:26:44;12.05;;;4.25;;
72394;SDS011;60384;48.152;11.614;2023-09-30T15:32:48;13.27;;;4.40;;
72394;SDS011;60384;48.152;11.614;2023-09-30T15:35:50;12.85;;;4.80;;
72394;SDS011;60384;48.152;11.614;2023-09-30T15:41:56;13.52;;;5.15;;
72394;SDS011;60384;48.152;11.614;2023-09-30T15:44:58;13.20;;;5.07;;
72394;SDS011;60384;48.152;11.614;2023-09-30T15:51:02;14.18;;;4.30;;
72394;SDS011;60384;48.152;11.614;2023-09-30T15:57:07;16.05;;;4.80;;
72394;SDS011;60384;48.152;11.614;2023-09-30T16:00:10;15.52;;;5.10;;
72394;SDS011;60384;48.152;11.614;2023-09-30T16:03:13;14.23;;;5.07;;
72394;SDS011;60384;48.152;11.614;2023-09-30T16:09:19;14.48;;;5.00;;
72394;SDS011;60384;48.152;11.614;2023-09-30T16:12:20;14.05;;;4.57;;
72394;SDS011;60384;48.152;11.614;2023-09-30T16:18:26;18.27;;;5.50;;
72394;SDS011;60384;48.152;11.614;2023-09-30T16:21:28;14.25;;;4.68;;
72394;SDS011;60384;48.152;11.614;2023-09-30T16:27:34;14.00;;;5.70;;
72394;SDS011;60384;48.152;11.614;2023-09-30T16:30:36;15.27;;;5.25;;
72394;SDS011;60384;48.152;11.614;2023-09-30T16:33:38;15.75;;;5.20;;
72394;SDS011;60384;48.152;11.614;2023-09-30T16:39:43;15.43;;;5.70;;
72394;SDS011;60384;48.152;11.614;2023-09-30T16:42:44;14.55;;;5.78;;
72394;SDS011;60384;48.152;11.614;2023-09-30T16:48:49;13.05;;;5.40;;
72394;SDS011;60384;48.152;11.614;2023-09-30T16:51:51;15.65;;;6.00;;
72394;SDS011;60384;48.152;11.614;2023-09-30T16:54:54;13.90;;;5.45;;
72394;SDS011;60384;48.152;11.614;2023-09-30T16:57:56;16.52;;;5.38;;
72394;SDS011;60384;48.152;11.614;2023-09-30T17:04:00;14.85;;;6.10;;
72394;SDS011;60384;48.152;11.614;2023-09-30T17:07:02;14.00;;;5.18;;
72394;SDS011;60384;48.152;11.614;2023-09-30T17:10:06;14.95;;;5.45;;
72394;SDS011;60384;48.152;11.614;2023-09-30T17:13:10;14.55;;;5.13;;
72394;SDS011;60384;48.152;11.614;2023-09-30T17:16:16;14.18;;;5.97;;
72394;SDS011;60384;48.152;11.614;2023-09-30T17:19:18;14.48;;;5.95;;
72394;SDS011;60384;48.152;11.614;2023-09-30T17:22:21;15.13;;;5.15;;
72394;SDS011;60384;48.152;11.614;2023-09-30T17:25:24;15.82;;;5.82;;
72394;SDS011;60384;48.152;11.614;2023-09-30T17:28:28;15.30;;;5.88;;
72394;SDS011;60384;48.152;11.614;2023-09-30T17:31:30;16.25;;;5.63;;
72394;SDS011;60384;48.152;11.614;2023-09-30T17:34:33;15.60;;;6.18;;
72394;SDS011;60384;48.152;11.614;2023-09-30T17:37:36;14.90;;;5.53;;
72394;SDS011;60384;48.152;11.614;2023-09-30T17:40:40;17.30;;;5.70;;
72394;SDS011;60384;48.152;11.614;2023-09-30T17:43:41;14.40;;;6.03;;
72394;SDS011;60384;48.152;11.614;2023-09-30T17:46:43;16.13;;;6.00;;
72394;SDS011;60384;48.152;11.614;2023-09-30T17:49:45;16.85;;;6.60;;
72394;SDS011;60384;48.152;11.614;2023-09-30T17:52:47;14.52;;;5.97;;
72394;SDS011;60384;48.152;11.614;2023-09-30T17:55:50;16.48;;;5.90;;
72394;SDS011;60384;48.152;11.614;2023-09-30T17:58:52;16.55;;;6.25;;
72394;SDS011;60384;48.152;11.614;2023-09-30T18:01:54;15.13;;;6.50;;
72394;SDS011;60384;48.152;11.614;2023-09-30T18:04:56;16.38;;;6.15;;
72394;SDS011;60384;48.152;11.614;2023-09-30T18:11:01;15.93;;;6.90;;
72394;SDS011;60384;48.152;11.614;2023-09-30T18:14:03;19.27;;;8.02;;
72394;SDS011;60384;48.152;11.614;2023-09-30T18:17:06;17.67;;;7.60;;
72394;SDS011;60384;48.152;11.614;2023-09-30T18:20:09;18.75;;;7.47;;
72394;SDS011;60384;48.152;11.614;2023-09-30T18:23:11;22.20;;;9.18;;
72394;SDS011;60384;48.152;11.614;2023-09-30T18:26:15;17.70;;;8.23;;
72394;SDS011;60384;48.152;11.614;2023-09-30T18:29:16;19.85;;;8.60;;
72394;SDS011;60384;48.152;11.614;2023-09-30T18:35:21;20.90;;;7.80;;
72394;SDS011;60384;48.152;11.614;2023-09-30T18:41:26;19.63;;;8.00;;
72394;SDS011;60384;48.152;11.614;2023-09-30T18:44:28;16.25;;;6.57;;
72394;SDS011;60384;48.152;11.614;2023-09-30T18:47:30;15.18;;;6.05;;
72394;SDS011;60384;48.152;11.614;2023-09-30T18:50:37;19.70;;;6.43;;
72394;SDS011;60384;48.152;11.614;2023-09-30T18:53:40;16.05;;;6.50;;
72394;SDS011;60384;48.152;11.614;2023-09-30T18:56:43;16.45;;;6.50;;
72394;SDS011;60384;48.152;11.614;2023-09-30T18:59:45;16.50;;;6.15;;
72394;SDS011;60384;48.152;11.614;2023-09-30T19:02:47;14.68;;;6.18;;
72394;SDS011;60384;48.152;11.614;2023-09-30T19:05:49;15.43;;;6.15;;
72394;SDS011;60384;48.152;11.614;2023-09-30T19:08:54;15.10;;;5.65;;
72394;SDS011;60384;48.152;11.614;2023-09-30T19:15:00;14.32;;;5.57;;
72394;SDS011;60384;48.152;11.614;2023-09-30T19:21:29;15.10;;;5.15;;
72394;SDS011;60384;48.152;11.614;2023-09-30T19:24:30;15.35;;;5.15;;
72394;SDS011;60384;48.152;11.614;2023-09-30T19:27:34;14.18;;;4.82;;
72394;SDS011;60384;48.152;11.614;2023-09-30T19:30:36;13.88;;;5.22;;
72394;SDS011;60384;48.152;11.614;2023-09-30T19:33:38;15.65;;;5.43;;
72394;SDS011;60384;48.152;11.614;2023-09-30T19:36:41;14.13;;;5.82;;
72394;SDS011;60384;48.152;11.614;2023-09-30T19:42:46;16.05;;;5.68;;
72394;SDS011;60384;48.152;11.614;2023-09-30T19:45:48;15.82;;;5.32;;
72394;SDS011;60384;48.152;11.614;2023-09-30T19:48:49;13.32;;;5.32;;
72394;SDS011;60384;48.152;11.614;2023-09-30T19:51:52;14.30;;;5.32;;
72394;SDS011;60384;48.152;11.614;2023-09-30T19:55:05;14.85;;;5.68;;
72394;SDS011;60384;48.152;11.614;2023-09-30T19:58:09;13.73;;;5.93;;
72394;SDS011;60384;48.152;11.614;2023-09-30T20:01:10;15.85;;;5.75;;
72394;SDS011;60384;48.152;11.614;2023-09-30T20:04:12;13.70;;;5.38;;
72394;SDS011;60384;48.152;11.614;2023-09-30T20:07:15;16.75;;;6.03;;
72394;SDS011;60384;48.152;11.614;2023-09-30T20:10:17;16.45;;;5.75;;
72394;SDS011;60384;48.152;11.614;2023-09-30T20:13:21;14.15;;;5.53;;
72394;SDS011;60384;48.152;11.614;2023-09-30T20:16:23;15.10;;;5.50;;
72394;SDS011;60384;48.152;11.614;2023-09-30T20:22:26;20.08;;;5.38;;
72394;SDS011;60384;48.152;11.614;2023-09-30T20:25:28;14.15;;;5.60;;
72394;SDS011;60384;48.152;11.614;2023-09-30T20:28:32;14.00;;;5.55;;